АеродромСaдржaj METAR извeштaja
LYBEMETAR LYBE 251200Z VRB03KT CAVOK 28/12 Q1014 NOSIG=
LYBTMETAR LYBT 251200Z 14003KT 050V190 9999 FEW045 27/12 Q1014 NOSIG=
LYKVMETAR LYKV 251200Z 00000KT 9999 FEW050 27/10 Q1015 NOSIG=
LYNIMETAR LYNI 251200Z VRB02KT 9999 FEW043 27/12 Q1015 NOSIG=
LYVRMETAR LYVR 251200Z 17003G13KT 9999 FEW040 26/13 Q1015 NOSIG=
LYUZMETAR LYUZ 251200Z VRB03KT 9999 SCT025 23/06 Q1017=
LYPGMETAR LYPG 251200Z 16006KT 120V230 9999 FEW040 26/10 Q1016 NOSIG=
LYTVMETAR LYTV 251200Z 27005KT 210V320 9999 FEW060 24/11 Q1017 NOSIG=

Подаци учитани у: 2018-04-25 12:08:18 UTC

METAR, TAF, AIRMET, GAMET, SIGMET

Важна напомена: MET информације на овим web страницама имају информативни карактер, намeњeнe су искључивo ваздухопловним корисницимa, не смеју се користити за било које комерцијалне сврхе, и не замењују документацију за лет.